createdAt,value
2022-10-12T00:00:49.836Z,3.20
2022-10-12T00:03:18.098Z,1.37
2022-10-12T00:05:46.196Z,5.03
2022-10-12T00:08:18.919Z,3.43
2022-10-12T00:10:46.704Z,1.87
2022-10-12T00:13:14.502Z,1.83
2022-10-12T00:15:43.598Z,2.37
2022-10-12T00:18:11.386Z,2.83
2022-10-12T00:20:39.105Z,2.73
2022-10-12T00:23:07.852Z,1.93
2022-10-12T00:25:37.436Z,4.10
2022-10-12T00:28:06.342Z,2.93
2022-10-12T00:30:34.832Z,3.83
2022-10-12T00:33:04.028Z,2.57
2022-10-12T00:35:31.869Z,3.03
2022-10-12T00:37:59.613Z,2.03
2022-10-12T00:40:27.499Z,2.00
2022-10-12T00:42:55.272Z,1.80
2022-10-12T00:45:25.965Z,4.00
2022-10-12T00:47:57.901Z,1.80
2022-10-12T00:50:30.549Z,2.60
2022-10-12T00:53:03.912Z,2.50
2022-10-12T00:55:35.727Z,2.07
2022-10-12T00:58:05.342Z,1.57
2022-10-12T01:00:33.189Z,1.93
2022-10-12T01:03:01.246Z,1.50
2022-10-12T01:05:30.417Z,2.43
2022-10-12T01:07:59.790Z,3.20
2022-10-12T01:10:27.763Z,2.10
2022-10-12T01:12:55.987Z,2.97
2022-10-12T01:15:28.978Z,1.60
2022-10-12T01:18:04.986Z,1.60
2022-10-12T01:20:55.355Z,3.27
2022-10-12T01:23:49.502Z,2.73
2022-10-12T01:26:40.376Z,2.30
2022-10-12T01:29:23.421Z,2.77
2022-10-12T01:31:59.022Z,2.87
2022-10-12T01:34:34.304Z,3.67
2022-10-12T01:37:09.411Z,1.93
2022-10-12T01:39:42.340Z,2.60
2022-10-12T01:42:15.967Z,1.97
2022-10-12T01:44:43.787Z,2.90
2022-10-12T01:47:12.943Z,2.73
2022-10-12T01:49:40.835Z,1.60
2022-10-12T01:52:37.230Z,3.50
2022-10-12T01:55:23.754Z,1.63
2022-10-12T01:58:04.751Z,2.10
2022-10-12T02:00:42.470Z,2.40
2022-10-12T02:03:20.973Z,1.87
2022-10-12T02:05:54.375Z,1.83
2022-10-12T02:08:26.578Z,1.50
2022-10-12T02:11:01.892Z,3.03
2022-10-12T02:13:34.432Z,1.83
2022-10-12T02:16:07.707Z,2.57
2022-10-12T02:18:41.191Z,3.00
2022-10-12T02:21:12.783Z,2.50
2022-10-12T02:23:40.744Z,3.07
2022-10-12T02:26:09.650Z,1.80
2022-10-12T02:28:39.503Z,2.77
2022-10-12T02:31:16.331Z,2.63
2022-10-12T02:33:52.305Z,2.77
2022-10-12T02:36:27.825Z,2.60
2022-10-12T02:39:02.806Z,2.60
2022-10-12T02:41:36.926Z,2.63
2022-10-12T02:44:08.820Z,2.37
2022-10-12T02:46:37.635Z,2.90
2022-10-12T02:49:08.002Z,2.53
2022-10-12T02:51:37.136Z,2.83
2022-10-12T02:54:05.026Z,2.57
2022-10-12T02:56:32.825Z,2.57
2022-10-12T02:59:00.635Z,1.93
2022-10-12T03:01:28.425Z,2.93
2022-10-12T03:03:56.224Z,2.80
2022-10-12T03:06:25.382Z,4.27
2022-10-12T03:08:53.317Z,3.83
2022-10-12T03:11:21.059Z,3.23
2022-10-12T03:13:48.820Z,2.50
2022-10-12T03:16:16.558Z,2.47
2022-10-12T03:18:44.314Z,1.70
2022-10-12T03:21:12.211Z,2.97
2022-10-12T03:23:41.653Z,2.77
2022-10-12T03:26:09.897Z,3.17
2022-10-12T03:28:37.794Z,2.73
2022-10-12T03:31:05.771Z,3.13
2022-10-12T03:33:33.561Z,2.47
2022-10-12T03:36:01.319Z,2.30
2022-10-12T03:38:29.122Z,1.70
2022-10-12T03:41:01.753Z,3.13
2022-10-12T03:43:32.102Z,2.23
2022-10-12T03:45:59.957Z,2.47
2022-10-12T03:48:27.811Z,2.33
2022-10-12T03:50:55.595Z,2.80
2022-10-12T03:53:23.392Z,1.87
2022-10-12T03:55:51.141Z,1.60
2022-10-12T03:58:20.204Z,1.90
2022-10-12T04:00:47.984Z,3.37
2022-10-12T04:03:15.840Z,2.73
2022-10-12T04:05:43.568Z,2.87
2022-10-12T04:08:11.388Z,3.37
2022-10-12T04:10:39.092Z,2.43
2022-10-12T04:13:06.814Z,1.73
2022-10-12T04:15:35.915Z,1.97
2022-10-12T04:18:03.708Z,2.07
2022-10-12T04:20:31.895Z,2.23
2022-10-12T04:22:59.723Z,3.00
2022-10-12T04:25:30.144Z,2.03
2022-10-12T04:27:58.411Z,2.23
2022-10-12T04:30:26.282Z,2.33
2022-10-12T04:32:55.384Z,2.43
2022-10-12T04:35:23.164Z,1.77
2022-10-12T04:37:51.435Z,2.03
2022-10-12T04:40:19.215Z,4.00
2022-10-12T04:42:46.946Z,2.80
2022-10-12T04:45:15.153Z,2.43
2022-10-12T04:47:42.970Z,2.50
2022-10-12T04:50:12.213Z,2.23
2022-10-12T04:52:40.081Z,2.23
2022-10-12T04:55:09.082Z,2.77
2022-10-12T04:57:37.154Z,2.20
2022-10-12T05:00:06.161Z,3.57
2022-10-12T05:02:33.970Z,2.40
2022-10-12T05:05:01.731Z,2.13
2022-10-12T05:07:30.847Z,1.97
2022-10-12T05:09:58.960Z,1.63
2022-10-12T05:12:26.769Z,1.73
2022-10-12T05:14:54.559Z,1.67
2022-10-12T05:17:22.287Z,1.80
2022-10-12T05:19:50.054Z,1.37
2022-10-12T05:22:17.760Z,1.87
2022-10-12T05:24:51.315Z,2.33
2022-10-12T05:27:21.302Z,2.33
2022-10-12T05:29:49.103Z,3.70
2022-10-12T05:32:17.170Z,1.93
2022-10-12T05:34:44.942Z,2.00
2022-10-12T05:37:12.891Z,4.43
2022-10-12T05:39:40.852Z,4.27
2022-10-12T05:42:10.087Z,2.33
2022-10-12T05:44:37.876Z,2.23
2022-10-12T05:47:05.742Z,2.57
2022-10-12T05:49:33.514Z,3.23
2022-10-12T05:52:01.364Z,2.00
2022-10-12T05:54:29.205Z,3.03
2022-10-12T05:56:57.254Z,2.23
2022-10-12T05:59:26.452Z,3.87
2022-10-12T06:01:54.415Z,2.03
2022-10-12T06:04:22.319Z,2.73
2022-10-12T06:06:50.122Z,2.37
2022-10-12T06:09:17.943Z,2.03
2022-10-12T06:11:45.755Z,2.17
2022-10-12T06:14:14.731Z,1.50
2022-10-12T06:16:43.875Z,1.67
2022-10-12T06:19:11.871Z,1.57
2022-10-12T06:21:39.704Z,1.70
2022-10-12T06:24:07.771Z,1.57
2022-10-12T06:26:35.636Z,2.30
2022-10-12T06:29:03.422Z,1.47
2022-10-12T06:31:32.440Z,1.87
2022-10-12T06:34:01.611Z,1.47
2022-10-12T06:36:29.470Z,2.00
2022-10-12T06:38:57.287Z,2.50
2022-10-12T06:41:25.457Z,1.27
2022-10-12T06:43:53.361Z,2.83
2022-10-12T06:46:21.173Z,2.80
2022-10-12T06:48:48.914Z,3.23
2022-10-12T06:51:18.072Z,3.20
2022-10-12T06:53:45.988Z,2.70
2022-10-12T06:56:14.066Z,2.67
2022-10-12T06:58:42.130Z,3.83
2022-10-12T07:01:11.026Z,3.63
2022-10-12T07:03:38.947Z,2.00
2022-10-12T07:06:08.679Z,2.03
2022-10-12T07:08:38.318Z,2.37
2022-10-12T07:11:08.441Z,2.43
2022-10-12T07:13:37.108Z,3.30
2022-10-12T07:16:05.412Z,3.33
2022-10-12T07:18:33.525Z,4.17
2022-10-12T07:21:02.711Z,4.43
2022-10-12T07:23:32.311Z,2.60
2022-10-12T07:26:01.490Z,2.70
2022-10-12T07:28:29.958Z,3.07
2022-10-12T07:31:02.116Z,2.77
2022-10-12T07:33:33.107Z,2.67
2022-10-12T07:36:21.358Z,2.43
2022-10-12T07:38:49.307Z,3.47
2022-10-12T07:41:18.783Z,2.13
2022-10-12T07:43:46.622Z,3.47
2022-10-12T07:46:14.525Z,2.60
2022-10-12T07:48:48.942Z,2.60
2022-10-12T07:51:17.677Z,3.37
2022-10-12T07:53:45.659Z,3.27
2022-10-12T07:56:15.937Z,4.67
2022-10-12T07:58:49.645Z,4.57
2022-10-12T08:01:18.905Z,3.40
2022-10-12T08:03:46.953Z,3.43
2022-10-12T08:06:17.611Z,4.30
2022-10-12T08:08:45.976Z,3.70
2022-10-12T08:11:15.913Z,3.40
2022-10-12T08:13:45.887Z,4.10
2022-10-12T08:16:16.339Z,5.27
2022-10-12T08:18:44.454Z,5.13
2022-10-12T08:21:14.403Z,5.40
2022-10-12T08:23:44.447Z,6.97
2022-10-12T08:26:13.361Z,6.20
2022-10-12T08:28:41.469Z,7.27
2022-10-12T08:31:12.833Z,5.00
2022-10-12T08:33:40.884Z,6.03
2022-10-12T08:36:09.258Z,7.97
2022-10-12T08:38:38.876Z,9.80
2022-10-12T08:41:20.897Z,5.80
2022-10-12T08:43:59.462Z,5.07
2022-10-12T08:46:30.179Z,6.53
2022-10-12T08:49:02.799Z,6.07
2022-10-12T08:51:34.394Z,5.20
2022-10-12T08:54:07.903Z,7.97
2022-10-12T08:56:36.257Z,3.80
2022-10-12T08:59:04.634Z,4.83
2022-10-12T09:01:38.528Z,3.20
2022-10-12T09:04:18.112Z,6.13
2022-10-12T09:06:50.760Z,4.40
2022-10-12T09:09:33.627Z,3.70
2022-10-12T09:12:19.565Z,4.40
2022-10-12T09:14:48.898Z,5.87
2022-10-12T09:17:27.668Z,5.07
2022-10-12T09:20:03.785Z,4.27
2022-10-12T09:22:32.623Z,2.83
2022-10-12T09:25:01.353Z,4.33
2022-10-12T09:27:33.195Z,5.10
2022-10-12T09:30:05.815Z,4.30
2022-10-12T09:32:49.222Z,5.87
2022-10-12T09:35:17.982Z,3.07
2022-10-12T09:37:56.967Z,4.50
2022-10-12T09:40:27.759Z,4.37
2022-10-12T09:42:59.459Z,4.63
2022-10-12T09:45:36.136Z,4.67
2022-10-12T09:48:13.606Z,4.00
2022-10-12T09:50:44.897Z,3.47
2022-10-12T09:53:16.233Z,4.47
2022-10-12T09:55:54.837Z,6.17
2022-10-12T09:58:23.243Z,5.23
2022-10-12T10:01:12.430Z,4.70
2022-10-12T10:03:41.567Z,5.10
2022-10-12T10:06:09.677Z,4.97
2022-10-12T10:08:42.105Z,4.53
2022-10-12T10:11:16.833Z,4.63
2022-10-12T10:13:49.842Z,9.83
2022-10-12T10:16:18.311Z,4.37
2022-10-12T10:18:50.390Z,5.77
2022-10-12T10:21:28.029Z,7.33
2022-10-12T10:23:58.015Z,5.37
2022-10-12T10:26:27.143Z,6.50
2022-10-12T10:28:58.886Z,5.13
2022-10-12T10:31:29.537Z,6.03
2022-10-12T10:34:20.008Z,3.90
2022-10-12T10:36:50.230Z,4.67
2022-10-12T10:39:22.731Z,4.60
2022-10-12T10:41:51.431Z,4.10
2022-10-12T10:44:28.758Z,4.80
2022-10-12T10:46:59.567Z,4.90
2022-10-12T10:49:37.306Z,6.83
2022-10-12T10:52:06.869Z,4.83
2022-10-12T10:54:38.809Z,3.73
2022-10-12T10:57:13.573Z,5.77
2022-10-12T10:59:48.248Z,3.47
2022-10-12T11:02:23.044Z,5.03
2022-10-12T11:04:58.070Z,5.07
2022-10-12T11:07:31.129Z,4.53
2022-10-12T11:10:02.258Z,3.50
2022-10-12T11:12:33.032Z,6.10
2022-10-12T11:15:08.232Z,5.07
2022-10-12T11:17:42.115Z,4.07
2022-10-12T11:20:35.374Z,6.83
2022-10-12T11:23:10.842Z,6.90
2022-10-12T11:25:49.186Z,4.60
2022-10-12T11:28:17.710Z,4.87
2022-10-12T11:30:51.507Z,5.17
2022-10-12T11:33:24.984Z,6.17
2022-10-12T11:35:56.120Z,5.67
2022-10-12T11:38:29.779Z,6.80
2022-10-12T11:41:18.975Z,4.07
2022-10-12T11:43:56.381Z,5.57
2022-10-12T11:46:31.832Z,5.13
2022-10-12T11:49:03.926Z,3.57
2022-10-12T11:51:33.061Z,5.13
2022-10-12T11:54:07.658Z,5.03
2022-10-12T11:56:40.635Z,6.87
2022-10-12T11:59:19.995Z,5.90
2022-10-12T12:01:56.931Z,4.70
2022-10-12T12:04:46.365Z,8.37
2022-10-12T12:07:42.086Z,5.73
2022-10-12T12:10:47.241Z,2.90
2022-10-12T12:13:22.936Z,3.43
2022-10-12T12:16:31.706Z,4.23
2022-10-12T12:19:41.954Z,6.27
2022-10-12T12:22:28.633Z,3.80
2022-10-12T12:25:15.165Z,4.73
2022-10-12T12:27:44.766Z,4.47
2022-10-12T12:30:38.268Z,4.83
2022-10-12T12:33:26.524Z,4.97
2022-10-12T12:35:57.853Z,5.70
2022-10-12T12:38:28.869Z,6.30
2022-10-12T12:41:19.921Z,7.50
2022-10-12T12:43:59.270Z,4.63
2022-10-12T12:47:40.346Z,4.07
2022-10-12T12:50:02.994Z,6.00
2022-10-12T12:52:34.243Z,4.10
2022-10-12T12:55:37.386Z,4.77
2022-10-12T12:58:33.165Z,3.53
2022-10-12T13:01:26.748Z,2.47
2022-10-12T13:04:16.393Z,2.87
2022-10-12T13:07:33.900Z,5.27
2022-10-12T13:10:14.562Z,4.20
2022-10-12T13:12:57.637Z,3.93
2022-10-12T13:15:38.479Z,3.37
2022-10-12T13:18:46.397Z,5.13
2022-10-12T13:21:19.531Z,5.07
2022-10-12T13:23:50.177Z,5.30
2022-10-12T13:26:23.843Z,4.93
2022-10-12T13:28:53.397Z,7.53
2022-10-12T13:31:27.087Z,4.57
2022-10-12T13:34:00.932Z,3.43
2022-10-12T13:36:31.590Z,2.77
2022-10-12T13:39:01.985Z,2.30
2022-10-12T13:41:31.380Z,2.77
2022-10-12T13:44:00.872Z,3.40
2022-10-12T13:46:43.531Z,5.47
2022-10-12T13:49:15.607Z,4.20
2022-10-12T13:51:45.846Z,4.17
2022-10-12T13:54:19.305Z,2.47
2022-10-12T13:56:49.839Z,3.73
2022-10-12T13:59:20.944Z,4.73
2022-10-12T14:01:52.619Z,3.53
2022-10-12T14:04:21.060Z,3.47
2022-10-12T14:06:56.348Z,3.37
2022-10-12T14:09:26.779Z,3.50
2022-10-12T14:11:56.541Z,3.40
2022-10-12T14:14:32.799Z,2.63
2022-10-12T14:17:02.107Z,4.10
2022-10-12T14:19:36.724Z,2.73
2022-10-12T14:22:04.853Z,3.13
2022-10-12T14:24:36.554Z,2.97
2022-10-12T14:27:06.104Z,6.70
2022-10-12T14:29:36.753Z,5.90
2022-10-12T14:32:07.586Z,5.07
2022-10-12T14:34:40.394Z,4.53
2022-10-12T14:37:22.529Z,3.57
2022-10-12T14:39:52.358Z,4.37
2022-10-12T14:42:22.024Z,3.73
2022-10-12T14:44:50.714Z,2.80
2022-10-12T14:47:23.113Z,3.80
2022-10-12T14:49:54.554Z,3.20
2022-10-12T14:52:24.996Z,2.37
2022-10-12T14:54:53.661Z,2.50
2022-10-12T14:57:22.765Z,2.07
2022-10-12T14:59:51.054Z,2.17
2022-10-12T15:02:22.249Z,1.10
2022-10-12T15:04:50.182Z,2.73
2022-10-12T15:07:20.779Z,2.00
2022-10-12T15:09:48.919Z,1.87
2022-10-12T15:12:18.944Z,2.63
2022-10-12T15:14:47.211Z,1.30
2022-10-12T15:17:20.280Z,1.60
2022-10-12T15:19:49.244Z,1.30
2022-10-12T15:22:19.430Z,1.00
2022-10-12T15:24:47.587Z,0.70
2022-10-12T15:27:15.860Z,1.83
2022-10-12T15:29:44.247Z,0.83
2022-10-12T15:32:13.884Z,0.90
2022-10-12T15:34:43.038Z,0.97
2022-10-12T15:37:10.817Z,1.03
2022-10-12T15:39:38.617Z,0.67
2022-10-12T15:42:06.465Z,0.30
2022-10-12T15:44:40.454Z,1.07
2022-10-12T15:47:10.394Z,0.60
2022-10-12T15:49:38.585Z,0.53
2022-10-12T15:52:10.882Z,1.10
2022-10-12T15:54:38.722Z,1.10
2022-10-12T15:57:07.213Z,0.70
2022-10-12T15:59:35.137Z,1.00
2022-10-12T16:02:02.893Z,0.80
2022-10-12T16:04:30.668Z,1.20
2022-10-12T16:07:01.296Z,1.07
2022-10-12T16:09:30.387Z,0.67
2022-10-12T16:11:58.113Z,0.97
2022-10-12T16:14:25.913Z,1.00
2022-10-12T16:16:53.729Z,1.70
2022-10-12T16:19:21.515Z,2.17
2022-10-12T16:21:49.579Z,2.87
2022-10-12T16:24:17.917Z,2.10
2022-10-12T16:26:47.394Z,1.87
2022-10-12T16:29:15.117Z,1.60
2022-10-12T16:34:16.141Z,1.20
2022-10-12T16:36:44.018Z,1.37
2022-10-12T16:39:11.807Z,1.90
2022-10-12T16:41:39.547Z,1.87
2022-10-12T16:44:08.672Z,1.57
2022-10-12T16:46:37.001Z,1.40
2022-10-12T16:49:04.810Z,2.07
2022-10-12T16:51:32.565Z,1.93
2022-10-12T16:54:00.829Z,2.93
2022-10-12T16:56:28.614Z,1.83
2022-10-12T16:58:56.402Z,2.73
2022-10-12T17:01:25.540Z,2.13
2022-10-12T17:03:54.577Z,2.27
2022-10-12T17:06:22.434Z,2.03
2022-10-12T17:08:50.225Z,2.13
2022-10-12T17:11:17.999Z,2.47
2022-10-12T17:13:49.107Z,2.10
2022-10-12T17:16:36.798Z,3.30
2022-10-12T17:19:05.945Z,3.20
2022-10-12T17:21:34.367Z,3.60
2022-10-12T17:24:03.116Z,2.73
2022-10-12T17:26:30.931Z,3.00
2022-10-12T17:28:58.933Z,3.20
2022-10-12T17:31:27.046Z,3.53
2022-10-12T17:33:55.271Z,2.70
2022-10-12T17:36:28.077Z,3.10
2022-10-12T17:38:57.252Z,3.47
2022-10-12T17:41:25.525Z,2.73
2022-10-12T17:43:53.691Z,2.73
2022-10-12T17:46:22.836Z,2.67
2022-10-12T17:48:51.105Z,2.23
2022-10-12T17:51:19.401Z,3.17
2022-10-12T17:53:48.724Z,2.33
2022-10-12T17:56:18.511Z,1.93
2022-10-12T17:58:46.356Z,1.50
2022-10-12T18:01:16.376Z,1.80
2022-10-12T18:03:47.457Z,1.70
2022-10-12T18:06:17.601Z,3.33
2022-10-12T18:08:45.560Z,1.30
2022-10-12T18:11:16.731Z,1.40
2022-10-12T18:13:48.298Z,1.77
2022-10-12T18:16:17.719Z,1.60
2022-10-12T18:18:45.845Z,2.17
2022-10-12T18:21:14.751Z,1.67
2022-10-12T18:23:42.655Z,1.60
2022-10-12T18:26:12.836Z,2.10
2022-10-12T18:28:42.472Z,1.57
2022-10-12T18:31:17.815Z,1.60
2022-10-12T18:33:45.994Z,1.90
2022-10-12T18:36:14.758Z,1.60
2022-10-12T18:38:42.791Z,2.50
2022-10-12T18:41:12.797Z,2.03
2022-10-12T18:43:42.335Z,3.03
2022-10-12T18:46:12.273Z,4.27
2022-10-12T18:48:40.976Z,1.93
2022-10-12T18:51:15.473Z,1.70
2022-10-12T18:53:43.439Z,2.43
2022-10-12T18:56:11.309Z,1.20
2022-10-12T18:58:39.506Z,1.47
2022-10-12T19:01:11.643Z,3.53
2022-10-12T19:03:40.135Z,2.03
2022-10-12T19:06:10.867Z,2.37
2022-10-12T19:08:38.882Z,2.63
2022-10-12T19:11:08.296Z,2.57
2022-10-12T19:13:36.442Z,2.70
2022-10-12T19:16:06.163Z,2.10
2022-10-12T19:18:35.710Z,2.73
2022-10-12T19:21:05.658Z,1.60
2022-10-12T19:23:34.018Z,2.33
2022-10-12T19:26:06.277Z,2.13
2022-10-12T19:28:34.696Z,1.70
2022-10-12T19:31:03.254Z,2.90
2022-10-12T19:33:31.152Z,2.37
2022-10-12T19:36:03.408Z,1.97
2022-10-12T19:38:31.285Z,2.07
2022-10-12T19:40:59.404Z,2.67
2022-10-12T19:43:27.602Z,3.07
2022-10-12T19:45:55.586Z,3.37
2022-10-12T19:48:23.547Z,3.10
2022-10-12T19:51:00.309Z,3.00
2022-10-12T19:53:28.329Z,2.30
2022-10-12T19:56:00.674Z,2.27
2022-10-12T19:58:29.100Z,3.87
2022-10-12T20:01:01.623Z,2.83
2022-10-12T20:03:30.166Z,2.90
2022-10-12T20:05:58.606Z,3.20
2022-10-12T20:08:28.008Z,2.70
2022-10-12T20:10:55.866Z,2.27
2022-10-12T20:13:23.788Z,2.90
2022-10-12T20:15:53.970Z,2.47
2022-10-12T20:18:27.329Z,2.63
2022-10-12T20:20:55.761Z,1.90
2022-10-12T20:23:23.811Z,2.33
2022-10-12T20:25:54.606Z,1.80
2022-10-12T20:28:22.888Z,2.30
2022-10-12T20:30:51.248Z,1.70
2022-10-12T20:33:19.448Z,1.93
2022-10-12T20:35:48.487Z,2.23
2022-10-12T20:38:16.892Z,1.90
2022-10-12T20:40:45.930Z,1.67
2022-10-12T20:43:15.500Z,1.53
2022-10-12T20:45:43.712Z,1.67
2022-10-12T20:48:11.652Z,1.50
2022-10-12T20:50:39.501Z,1.83
2022-10-12T20:53:07.498Z,2.10
2022-10-12T20:55:35.896Z,1.63
2022-10-12T20:58:03.926Z,2.30
2022-10-12T21:00:33.395Z,1.60
2022-10-12T21:03:01.327Z,1.43
2022-10-12T21:05:29.357Z,3.07
2022-10-12T21:07:57.253Z,2.47
2022-10-12T21:10:25.544Z,2.80
2022-10-12T21:12:53.520Z,3.97
2022-10-12T21:15:21.478Z,3.07
2022-10-12T21:17:50.727Z,2.73
2022-10-12T21:20:18.643Z,4.33
2022-10-12T21:22:46.880Z,3.77
2022-10-12T21:25:15.010Z,2.73
2022-10-12T21:27:42.875Z,3.30
2022-10-12T21:30:11.599Z,2.97
2022-10-12T21:32:39.550Z,1.67
2022-10-12T21:35:09.586Z,2.63
2022-10-12T21:37:37.486Z,2.27
2022-10-12T21:40:06.324Z,1.97
2022-10-12T21:42:34.169Z,2.23
2022-10-12T21:45:02.164Z,1.90
2022-10-12T21:47:30.000Z,3.07
2022-10-12T21:49:57.979Z,4.17
2022-10-12T21:52:27.264Z,2.23
2022-10-12T21:54:55.155Z,2.80
2022-10-12T21:57:23.049Z,1.97
2022-10-12T21:59:50.972Z,3.03
2022-10-12T22:02:19.270Z,2.70
2022-10-12T22:04:47.447Z,2.40
2022-10-12T22:07:15.887Z,3.20
2022-10-12T22:09:46.316Z,3.97
2022-10-12T22:12:14.233Z,2.70
2022-10-12T22:14:43.113Z,2.63
2022-10-12T22:17:12.348Z,2.97
2022-10-12T22:19:46.199Z,2.73
2022-10-12T22:22:14.093Z,5.33
2022-10-12T22:24:42.082Z,3.87
2022-10-12T22:27:11.369Z,3.30
2022-10-12T22:29:39.388Z,2.57
2022-10-12T22:32:07.385Z,2.47
2022-10-12T22:34:35.230Z,2.10
2022-10-12T22:37:03.216Z,3.53
2022-10-12T22:39:31.055Z,2.77
2022-10-12T22:41:58.905Z,3.80
2022-10-12T22:44:28.236Z,3.40
2022-10-12T22:46:56.273Z,3.63
2022-10-12T22:49:24.144Z,4.27
2022-10-12T22:51:52.051Z,3.07
2022-10-12T22:54:19.981Z,2.80
2022-10-12T22:56:47.898Z,2.47
2022-10-12T22:59:16.736Z,3.60
2022-10-12T23:01:46.168Z,3.67
2022-10-12T23:04:14.016Z,2.60
2022-10-12T23:06:42.172Z,3.27
2022-10-12T23:09:09.980Z,2.70
2022-10-12T23:11:37.962Z,2.00
2022-10-12T23:14:05.914Z,2.93
2022-10-12T23:16:34.272Z,2.33
2022-10-12T23:19:05.262Z,3.23
2022-10-12T23:21:35.327Z,2.10
2022-10-12T23:24:04.983Z,2.20
2022-10-12T23:26:33.235Z,2.30
2022-10-12T23:29:01.379Z,1.97
2022-10-12T23:31:32.330Z,2.60
2022-10-12T23:34:04.786Z,3.10
2022-10-12T23:36:35.103Z,3.27
2022-10-12T23:39:05.304Z,2.63
2022-10-12T23:41:33.214Z,3.87
2022-10-12T23:44:01.100Z,2.80
2022-10-12T23:46:29.038Z,1.83
2022-10-12T23:48:58.587Z,2.03
2022-10-12T23:51:27.840Z,3.40
2022-10-12T23:53:55.610Z,3.60
2022-10-12T23:56:23.494Z,2.83
2022-10-12T23:58:51.319Z,2.20
